createdAt,value
2022-11-21T00:01:35.124Z,10.27
2022-11-21T00:04:02.580Z,8.87
2022-11-21T00:06:29.955Z,8.90
2022-11-21T00:08:57.297Z,10.53
2022-11-21T00:11:24.672Z,9.37
2022-11-21T00:13:52.063Z,9.13
2022-11-21T00:16:19.491Z,8.90
2022-11-21T00:18:46.832Z,9.83
2022-11-21T00:21:16.719Z,10.07
2022-11-21T00:23:45.664Z,10.40
2022-11-21T00:26:14.652Z,9.53
2022-11-21T00:28:42.223Z,10.10
2022-11-21T00:31:17.808Z,8.43
2022-11-21T00:33:45.099Z,10.27
2022-11-21T00:36:12.460Z,10.43
2022-11-21T00:38:39.876Z,9.83
2022-11-21T00:41:07.251Z,10.40
2022-11-21T00:43:34.876Z,11.50
2022-11-21T00:46:03.308Z,11.43
2022-11-21T00:48:32.150Z,9.47
2022-11-21T00:51:00.970Z,9.80
2022-11-21T00:53:29.147Z,9.47
2022-11-21T00:55:56.788Z,10.37
2022-11-21T00:58:24.197Z,12.73
2022-11-21T01:00:51.834Z,10.97
2022-11-21T01:03:19.511Z,10.57
2022-11-21T01:05:47.057Z,10.27
2022-11-21T01:08:14.449Z,10.80
2022-11-21T01:10:41.814Z,10.33
2022-11-21T01:13:09.227Z,12.00
2022-11-21T01:15:36.599Z,11.57
2022-11-21T01:18:04.099Z,11.57
2022-11-21T01:20:31.469Z,9.60
2022-11-21T01:22:58.905Z,10.53
2022-11-21T01:25:26.324Z,7.97
2022-11-21T01:27:53.668Z,11.37
2022-11-21T01:30:21.056Z,9.90
2022-11-21T01:32:50.105Z,11.33
2022-11-21T01:35:18.068Z,11.73
2022-11-21T01:37:49.081Z,8.47
2022-11-21T01:40:16.891Z,9.37
2022-11-21T01:42:57.468Z,10.77
2022-11-21T01:46:13.081Z,9.93
2022-11-21T01:49:10.912Z,8.67
2022-11-21T01:52:01.284Z,8.93
2022-11-21T01:54:37.846Z,9.80
2022-11-21T01:57:31.269Z,9.03
2022-11-21T02:00:11.592Z,10.20
2022-11-21T02:02:47.535Z,10.73
2022-11-21T02:05:20.810Z,9.83
2022-11-21T02:07:49.735Z,9.67
2022-11-21T02:10:17.657Z,9.37
2022-11-21T02:12:51.395Z,7.90
2022-11-21T02:15:23.882Z,10.93
2022-11-21T02:17:51.226Z,9.90
2022-11-21T02:20:24.772Z,10.20
2022-11-21T02:23:20.989Z,10.17
2022-11-21T02:25:48.384Z,10.07
2022-11-21T02:28:18.367Z,8.73
2022-11-21T02:30:46.640Z,9.97
2022-11-21T02:33:14.096Z,9.70
2022-11-21T02:35:41.998Z,9.43
2022-11-21T02:38:30.709Z,10.90
2022-11-21T02:41:26.821Z,9.20
2022-11-21T02:44:09.268Z,8.97
2022-11-21T02:46:36.766Z,10.03
2022-11-21T02:49:08.300Z,9.37
2022-11-21T02:51:35.675Z,10.48
2022-11-21T02:54:03.231Z,8.30
2022-11-21T02:56:30.839Z,9.17
2022-11-21T02:58:58.599Z,10.60
2022-11-21T03:01:26.078Z,8.53
2022-11-21T03:03:53.533Z,9.20
2022-11-21T03:09:37.588Z,10.17
2022-11-21T03:12:10.017Z,9.87
2022-11-21T03:14:37.690Z,9.13
2022-11-21T03:17:05.576Z,9.83
2022-11-21T03:19:33.116Z,9.77
2022-11-21T03:22:00.799Z,7.67
2022-11-21T03:24:28.436Z,7.77
2022-11-21T03:26:56.042Z,7.63
2022-11-21T03:29:23.442Z,8.57
2022-11-21T03:31:50.874Z,8.20
2022-11-21T03:34:18.233Z,8.73
2022-11-21T03:36:45.600Z,7.37
2022-11-21T03:39:13.401Z,8.13
2022-11-21T03:41:40.807Z,9.57
2022-11-21T03:44:11.058Z,8.30
2022-11-21T03:46:41.502Z,7.37
2022-11-21T03:49:09.542Z,8.07
2022-11-21T03:51:38.162Z,10.57
2022-11-21T03:54:06.768Z,9.13
2022-11-21T03:56:34.666Z,10.40
2022-11-21T03:59:02.311Z,7.07
2022-11-21T04:01:35.224Z,8.80
2022-11-21T04:04:04.512Z,6.33
2022-11-21T04:06:32.417Z,7.37
2022-11-21T04:08:59.899Z,7.47
2022-11-21T04:11:27.309Z,6.93
2022-11-21T04:13:54.635Z,7.20
2022-11-21T04:16:22.018Z,6.57
2022-11-21T04:18:49.412Z,7.03
2022-11-21T04:21:16.782Z,6.37
2022-11-21T04:23:44.167Z,8.77
2022-11-21T04:26:11.682Z,8.27
2022-11-21T04:28:39.160Z,11.10
2022-11-21T04:31:10.759Z,10.17
2022-11-21T04:33:39.791Z,8.77
2022-11-21T04:36:08.593Z,8.53
2022-11-21T04:38:37.035Z,8.20
2022-11-21T04:41:05.088Z,8.90
2022-11-21T04:43:32.477Z,7.43
2022-11-21T04:45:59.840Z,7.17
2022-11-21T04:48:27.162Z,9.60
2022-11-21T04:50:54.520Z,7.83
2022-11-21T04:53:21.889Z,6.80
2022-11-21T04:55:49.443Z,6.13
2022-11-21T04:58:17.905Z,6.70
2022-11-21T05:00:45.266Z,6.30
2022-11-21T05:03:12.644Z,5.97
2022-11-21T05:05:40.243Z,5.80
2022-11-21T05:08:07.656Z,6.40
2022-11-21T05:10:55.029Z,4.53
2022-11-21T05:13:22.410Z,5.87
2022-11-21T05:15:55.985Z,6.50
2022-11-21T05:18:23.596Z,5.53
2022-11-21T05:20:50.986Z,6.27
2022-11-21T05:23:18.336Z,4.80
2022-11-21T05:25:45.739Z,5.17
2022-11-21T05:28:13.051Z,5.93
2022-11-21T05:30:40.451Z,5.10
2022-11-21T05:33:07.827Z,5.50
2022-11-21T05:35:40.139Z,6.60
2022-11-21T05:38:10.332Z,6.80
2022-11-21T05:40:37.770Z,6.17
2022-11-21T05:43:23.911Z,6.07
2022-11-21T05:45:51.834Z,6.33
2022-11-21T05:48:19.182Z,7.67
2022-11-21T05:50:50.175Z,7.50
2022-11-21T05:53:17.767Z,6.87
2022-11-21T05:55:45.383Z,6.63
2022-11-21T05:58:13.283Z,7.47
2022-11-21T06:00:40.664Z,8.40
2022-11-21T06:03:28.379Z,7.77
2022-11-21T06:06:07.359Z,8.07
2022-11-21T06:08:39.800Z,7.10
2022-11-21T06:11:09.026Z,9.37
2022-11-21T06:13:37.147Z,8.70
2022-11-21T06:16:16.375Z,7.30
2022-11-21T06:18:45.523Z,7.60
2022-11-21T06:21:15.509Z,7.53
2022-11-21T06:23:43.651Z,7.70
2022-11-21T06:26:16.319Z,6.13
2022-11-21T06:28:47.471Z,7.13
2022-11-21T06:31:17.434Z,6.53
2022-11-21T06:33:45.670Z,7.47
2022-11-21T06:36:15.772Z,7.03
2022-11-21T06:38:44.491Z,7.17
2022-11-21T06:41:20.391Z,6.33
2022-11-21T06:43:48.175Z,6.87
2022-11-21T06:46:16.453Z,7.13
2022-11-21T06:48:44.365Z,7.17
2022-11-21T06:51:17.342Z,6.90
2022-11-21T06:53:45.828Z,6.67
2022-11-21T06:56:14.908Z,6.83
2022-11-21T06:58:42.387Z,8.17
2022-11-21T07:01:10.865Z,7.00
2022-11-21T07:03:38.270Z,6.00
2022-11-21T07:06:06.617Z,6.10
2022-11-21T07:08:36.243Z,6.47
2022-11-21T07:13:53.934Z,6.70
2022-11-21T07:16:21.599Z,6.60
2022-11-21T07:18:49.744Z,6.07
2022-11-21T07:21:17.452Z,5.53
2022-11-21T07:23:45.029Z,7.30
2022-11-21T07:26:12.641Z,6.53
2022-11-21T07:28:40.075Z,6.47
2022-11-21T07:31:13.545Z,7.73
2022-11-21T07:33:43.620Z,7.73
2022-11-21T07:36:12.827Z,6.97
2022-11-21T07:38:41.647Z,8.47
2022-11-21T07:41:10.220Z,6.57
2022-11-21T07:43:37.767Z,6.83
2022-11-21T07:46:05.175Z,8.13
2022-11-21T07:48:32.590Z,7.93
2022-11-21T07:51:04.320Z,7.03
2022-11-21T07:53:31.664Z,6.85
2022-11-21T07:55:59.971Z,7.70
2022-11-21T07:58:27.651Z,8.33
2022-11-21T08:00:55.176Z,8.73
2022-11-21T08:03:23.052Z,7.37
2022-11-21T08:05:50.455Z,8.13
2022-11-21T08:08:17.789Z,7.27
2022-11-21T08:10:47.298Z,7.10
2022-11-21T08:13:15.015Z,7.50
2022-11-21T08:15:42.432Z,7.60
2022-11-21T08:18:11.720Z,7.00
2022-11-21T08:20:39.514Z,7.03
2022-11-21T08:23:07.799Z,6.83
2022-11-21T08:25:37.663Z,7.40
2022-11-21T08:28:06.013Z,6.23
2022-11-21T08:30:34.848Z,6.77
2022-11-21T08:33:03.364Z,6.87
2022-11-21T08:35:30.891Z,6.77
2022-11-21T08:38:01.736Z,6.50
2022-11-21T08:40:30.602Z,6.17
2022-11-21T08:43:02.536Z,8.40
2022-11-21T08:45:30.724Z,7.03
2022-11-21T08:47:58.175Z,6.57
2022-11-21T08:50:26.438Z,8.63
2022-11-21T08:52:59.000Z,7.80
2022-11-21T08:55:26.392Z,9.37
2022-11-21T08:57:53.780Z,8.27
2022-11-21T09:00:21.287Z,7.03
2022-11-21T09:02:48.604Z,6.77
2022-11-21T09:05:17.137Z,6.97
2022-11-21T09:07:45.198Z,6.53
2022-11-21T09:10:12.972Z,7.77
2022-11-21T09:12:41.717Z,8.07
2022-11-21T09:15:29.065Z,7.73
2022-11-21T09:18:04.177Z,8.57
2022-11-21T09:20:34.163Z,7.20
2022-11-21T09:23:09.883Z,8.83
2022-11-21T09:25:37.524Z,8.43
2022-11-21T09:28:07.298Z,8.10
2022-11-21T09:30:35.183Z,7.20
2022-11-21T09:33:03.755Z,7.83
2022-11-21T09:35:31.476Z,9.77
2022-11-21T09:37:59.081Z,7.73
2022-11-21T09:40:28.972Z,8.60
2022-11-21T09:43:36.069Z,6.87
2022-11-21T09:46:10.950Z,9.30
2022-11-21T09:48:54.249Z,8.90
2022-11-21T09:51:23.831Z,8.20
2022-11-21T09:54:05.579Z,9.23
2022-11-21T09:56:37.923Z,8.23
2022-11-21T09:59:39.122Z,8.07
2022-11-21T10:02:18.460Z,7.27
2022-11-21T10:04:47.280Z,7.63
2022-11-21T10:07:29.521Z,7.93
2022-11-21T10:13:18.380Z,6.93
2022-11-21T10:16:05.990Z,7.68
2022-11-21T10:19:02.499Z,10.97
2022-11-21T10:21:51.394Z,8.40
2022-11-21T10:24:43.911Z,12.87
2022-11-21T10:27:27.430Z,8.33
2022-11-21T10:30:02.385Z,6.87
2022-11-21T10:32:39.297Z,13.70
2022-11-21T10:35:29.264Z,9.50
2022-11-21T10:38:00.402Z,11.87
2022-11-21T10:40:44.310Z,9.83
2022-11-21T10:43:58.707Z,7.13
2022-11-21T10:46:26.098Z,12.03
2022-11-21T10:48:59.559Z,6.17
2022-11-21T10:51:43.664Z,9.63
2022-11-21T10:54:31.837Z,7.47
2022-11-21T10:57:20.059Z,7.07
2022-11-21T11:00:00.220Z,8.93
2022-11-21T11:02:28.072Z,9.43
2022-11-21T11:05:22.012Z,6.77
2022-11-21T11:08:02.883Z,9.83
2022-11-21T11:10:33.313Z,6.00
2022-11-21T11:16:18.357Z,6.00
2022-11-21T11:19:08.707Z,7.50
2022-11-21T11:21:44.585Z,7.30
2022-11-21T11:24:26.064Z,8.23
2022-11-21T11:26:58.938Z,6.70
2022-11-21T11:29:31.100Z,7.57
2022-11-21T11:32:06.481Z,6.67
2022-11-21T11:34:40.216Z,6.47
2022-11-21T11:37:20.472Z,6.37
2022-11-21T11:40:18.906Z,7.47
2022-11-21T11:43:41.326Z,6.23
2022-11-21T11:47:02.851Z,5.70
2022-11-21T11:50:07.253Z,5.63
2022-11-21T11:52:43.354Z,6.20
2022-11-21T11:55:35.374Z,5.87
2022-11-21T11:58:06.688Z,5.45
2022-11-21T12:00:45.712Z,7.05
2022-11-21T12:03:21.412Z,6.43
2022-11-21T12:05:59.381Z,6.37
2022-11-21T12:08:42.744Z,5.13
2022-11-21T12:11:47.372Z,6.87
2022-11-21T12:15:14.984Z,5.73
2022-11-21T12:18:30.419Z,4.80
2022-11-21T12:21:21.135Z,6.23
2022-11-21T12:24:08.077Z,5.07
2022-11-21T12:27:04.338Z,5.03
2022-11-21T12:30:08.975Z,5.53
2022-11-21T12:33:09.916Z,5.00
2022-11-21T12:36:17.484Z,5.27
2022-11-21T12:39:29.751Z,4.37
2022-11-21T12:42:41.600Z,4.63
2022-11-21T12:45:47.289Z,4.87
2022-11-21T12:48:40.172Z,5.07
2022-11-21T12:52:04.135Z,5.07
2022-11-21T12:55:00.780Z,5.87
2022-11-21T12:57:57.934Z,6.17
2022-11-21T13:01:10.204Z,5.50
2022-11-21T13:03:40.539Z,5.55
2022-11-21T13:06:19.364Z,4.87
2022-11-21T13:08:48.729Z,5.53
2022-11-21T13:12:01.658Z,5.00
2022-11-21T13:14:52.664Z,6.07
2022-11-21T13:17:56.037Z,6.43
2022-11-21T13:20:39.495Z,7.63
2022-11-21T13:23:43.344Z,5.60
2022-11-21T13:26:25.678Z,5.83
2022-11-21T13:31:41.693Z,4.17
2022-11-21T13:34:47.460Z,5.87
2022-11-21T13:38:10.353Z,4.70
2022-11-21T13:43:33.339Z,6.30
2022-11-21T13:46:01.518Z,4.77
2022-11-21T13:48:30.478Z,5.23
2022-11-21T13:51:35.241Z,5.87
2022-11-21T14:09:37.137Z,5.50
2022-11-21T14:12:21.593Z,6.63
2022-11-21T14:15:20.120Z,7.17
2022-11-21T14:18:01.279Z,6.77
2022-11-21T14:20:34.149Z,7.63
2022-11-21T14:23:21.865Z,6.50
2022-11-21T14:25:54.891Z,6.00
2022-11-21T14:28:30.154Z,5.23
2022-11-21T14:31:02.558Z,4.40
2022-11-21T14:33:37.719Z,5.53
2022-11-21T14:36:26.589Z,5.23
2022-11-21T14:41:49.749Z,6.47
2022-11-21T14:44:19.968Z,6.23
2022-11-21T14:46:48.592Z,5.93
2022-11-21T14:49:21.777Z,5.13
2022-11-21T14:52:12.332Z,7.07
2022-11-21T14:55:13.488Z,6.07
2022-11-21T14:57:42.636Z,5.30
2022-11-21T15:00:43.104Z,6.53
2022-11-21T15:03:04.584Z,6.20
2022-11-21T15:06:00.657Z,8.03
2022-11-21T15:09:14.838Z,6.17
2022-11-21T15:11:14.954Z,7.53
2022-11-21T15:16:36.731Z,7.20
2022-11-21T15:19:09.767Z,8.03
2022-11-21T15:21:37.407Z,7.57
2022-11-21T15:24:29.763Z,7.10
2022-11-21T15:29:25.076Z,8.07
2022-11-21T15:32:16.585Z,9.67
2022-11-21T15:34:44.366Z,7.30
2022-11-21T15:37:18.572Z,8.53
2022-11-21T15:39:48.683Z,8.10
2022-11-21T15:42:51.805Z,9.10
2022-11-21T15:45:25.834Z,9.87
2022-11-21T15:47:53.480Z,9.17
2022-11-21T15:50:23.637Z,8.87
2022-11-21T15:52:52.121Z,7.47
2022-11-21T15:55:29.663Z,8.30
2022-11-21T15:57:13.891Z,6.53
2022-11-21T15:57:56.980Z,9.63
2022-11-21T16:00:24.612Z,9.87
2022-11-21T16:02:52.505Z,8.03
2022-11-21T16:05:19.883Z,8.53
2022-11-21T16:07:48.466Z,8.70
2022-11-21T16:10:21.420Z,9.23
2022-11-21T16:12:53.523Z,8.20
2022-11-21T16:15:21.208Z,9.77
2022-11-21T16:17:48.584Z,9.43
2022-11-21T16:20:16.019Z,8.57
2022-11-21T16:22:47.723Z,8.97
2022-11-21T16:27:43.232Z,7.57
2022-11-21T16:30:11.886Z,8.43
2022-11-21T16:32:39.381Z,8.93
2022-11-21T16:35:07.158Z,8.57
2022-11-21T16:37:34.717Z,8.00
2022-11-21T16:40:02.082Z,7.47
2022-11-21T16:42:29.467Z,7.90
2022-11-21T16:44:56.836Z,8.53
2022-11-21T16:47:24.226Z,7.17
2022-11-21T16:49:51.621Z,8.03
2022-11-21T16:52:19.063Z,6.57
2022-11-21T16:54:47.212Z,8.20
2022-11-21T16:57:14.743Z,8.60
2022-11-21T16:59:42.069Z,7.87
2022-11-21T17:02:10.432Z,8.17
2022-11-21T17:04:37.993Z,7.10
2022-11-21T17:07:05.454Z,8.07
2022-11-21T17:09:32.926Z,8.23
2022-11-21T17:12:00.305Z,7.53
2022-11-21T17:14:28.001Z,6.93
2022-11-21T17:16:55.469Z,6.10
2022-11-21T17:19:23.256Z,7.33
2022-11-21T17:21:50.632Z,7.83
2022-11-21T17:24:18.447Z,7.03
2022-11-21T17:26:45.812Z,7.13
2022-11-21T17:29:13.185Z,7.37
2022-11-21T17:31:41.901Z,8.17
2022-11-21T17:34:09.399Z,7.60
2022-11-21T17:36:36.804Z,7.93
2022-11-21T17:39:06.415Z,6.87
2022-11-21T17:41:33.834Z,9.43
2022-11-21T17:44:01.688Z,8.23
2022-11-21T17:46:29.144Z,6.73
2022-11-21T17:48:58.796Z,7.40
2022-11-21T17:51:35.472Z,6.90
2022-11-21T17:54:02.981Z,7.30
2022-11-21T17:56:33.150Z,6.07
2022-11-21T17:59:00.821Z,6.07
2022-11-21T18:01:29.207Z,7.30
2022-11-21T18:04:01.886Z,6.20
2022-11-21T18:06:34.394Z,5.27
2022-11-21T18:09:02.602Z,6.90
2022-11-21T18:11:38.919Z,5.87
2022-11-21T18:14:08.009Z,5.77
2022-11-21T18:16:35.973Z,6.77
2022-11-21T18:19:03.494Z,7.10
2022-11-21T18:21:33.918Z,5.87
2022-11-21T18:24:01.314Z,5.73
2022-11-21T18:26:31.454Z,5.77
2022-11-21T18:29:28.578Z,6.50
2022-11-21T18:31:49.315Z,6.10
2022-11-21T18:34:16.978Z,6.27
2022-11-21T18:36:44.463Z,5.67
2022-11-21T18:39:15.154Z,7.47
2022-11-21T18:41:43.630Z,5.35
2022-11-21T18:44:12.676Z,5.30
2022-11-21T18:46:42.089Z,5.63
2022-11-21T18:49:09.637Z,6.83
2022-11-21T18:51:37.214Z,6.00
2022-11-21T18:54:08.720Z,7.37
2022-11-21T18:56:37.939Z,6.22
2022-11-21T18:59:06.642Z,4.80
2022-11-21T19:01:36.485Z,6.30
2022-11-21T19:04:04.219Z,5.27
2022-11-21T19:06:32.170Z,7.03
2022-11-21T19:08:59.910Z,6.17
2022-11-21T19:11:30.395Z,5.80
2022-11-21T19:14:00.388Z,6.80
2022-11-21T19:16:31.206Z,5.87
2022-11-21T19:19:33.104Z,8.33
2022-11-21T19:21:47.266Z,6.93
2022-11-21T19:24:15.423Z,6.80
2022-11-21T19:26:43.245Z,6.60
2022-11-21T19:29:10.924Z,6.40
2022-11-21T19:31:44.746Z,7.73
2022-11-21T19:34:14.580Z,9.07
2022-11-21T19:36:43.138Z,8.17
2022-11-21T19:39:11.158Z,7.43
2022-11-21T19:41:38.613Z,7.27
2022-11-21T19:44:05.968Z,8.20
2022-11-21T19:46:37.374Z,8.00
2022-11-21T19:49:06.258Z,8.63
2022-11-21T19:51:40.182Z,8.50
2022-11-21T19:54:09.059Z,8.10
2022-11-21T19:56:37.323Z,8.37
2022-11-21T19:59:05.194Z,7.50
2022-11-21T20:01:34.506Z,7.17
2022-11-21T20:04:04.114Z,7.20
2022-11-21T20:06:34.229Z,6.80
2022-11-21T20:09:07.842Z,8.00
2022-11-21T20:11:36.147Z,6.73
2022-11-21T20:14:03.839Z,8.03
2022-11-21T20:16:36.464Z,6.30
2022-11-21T20:19:07.031Z,6.87
2022-11-21T20:21:34.875Z,7.83
2022-11-21T20:24:02.428Z,6.10
2022-11-21T20:26:29.992Z,7.07
2022-11-21T20:28:57.339Z,6.90
2022-11-21T20:31:29.842Z,6.53
2022-11-21T20:34:00.850Z,10.17
2022-11-21T20:36:31.586Z,7.70
2022-11-21T20:39:07.413Z,6.63
2022-11-21T20:41:36.728Z,7.23
2022-11-21T20:46:53.974Z,6.67
2022-11-21T20:49:21.757Z,6.77
2022-11-21T20:54:37.072Z,7.43
2022-11-21T20:57:04.478Z,7.20
2022-11-21T20:59:32.341Z,7.87
2022-11-21T21:01:59.949Z,7.70
2022-11-21T21:04:27.358Z,7.10
2022-11-21T21:06:54.673Z,6.77
2022-11-21T21:09:22.012Z,7.30
2022-11-21T21:11:52.664Z,8.33
2022-11-21T21:14:21.991Z,7.78
2022-11-21T21:16:50.205Z,8.03
2022-11-21T21:19:18.167Z,8.27
2022-11-21T21:21:45.713Z,5.30
2022-11-21T21:24:13.980Z,7.20
2022-11-21T21:26:44.582Z,6.30
2022-11-21T21:29:14.224Z,7.37
2022-11-21T21:31:47.175Z,6.20
2022-11-21T21:34:18.954Z,4.73
2022-11-21T21:36:46.503Z,6.37
2022-11-21T21:39:14.155Z,6.27
2022-11-21T21:41:44.699Z,6.30
2022-11-21T21:44:12.690Z,5.17
2022-11-21T21:46:40.135Z,5.73
2022-11-21T21:49:08.067Z,5.33
2022-11-21T21:51:37.493Z,5.27
2022-11-21T21:54:06.357Z,6.33
2022-11-21T21:56:34.263Z,6.23
2022-11-21T21:59:01.784Z,6.23
2022-11-21T22:01:31.290Z,5.67
2022-11-21T22:04:01.073Z,4.50
2022-11-21T22:06:29.147Z,4.47
2022-11-21T22:08:56.651Z,5.93
2022-11-21T22:11:29.657Z,5.57
2022-11-21T22:14:02.654Z,5.83
2022-11-21T22:16:30.879Z,5.83
2022-11-21T22:18:58.718Z,5.00
2022-11-21T22:21:28.228Z,5.07
2022-11-21T22:26:45.242Z,5.10
2022-11-21T22:29:12.591Z,6.57
2022-11-21T22:31:40.016Z,5.07
2022-11-21T22:34:09.640Z,4.57
2022-11-21T22:36:37.527Z,5.63
2022-11-21T22:39:04.870Z,4.50
2022-11-21T22:41:32.496Z,4.40
2022-11-21T22:44:00.563Z,3.37
2022-11-21T22:46:29.850Z,5.03
2022-11-21T22:48:57.291Z,4.83
2022-11-21T22:51:27.141Z,5.23
2022-11-21T22:53:54.587Z,4.77
2022-11-21T22:56:24.059Z,4.23
2022-11-21T22:58:52.062Z,4.70
2022-11-21T23:01:22.244Z,4.77
2022-11-21T23:03:49.989Z,6.03
2022-11-21T23:06:23.814Z,5.37
2022-11-21T23:08:52.921Z,5.67
2022-11-21T23:11:26.419Z,6.43
2022-11-21T23:13:55.531Z,5.23
2022-11-21T23:16:23.813Z,7.20
2022-11-21T23:18:55.468Z,5.47
2022-11-21T23:21:23.206Z,5.35
2022-11-21T23:23:50.761Z,6.23
2022-11-21T23:26:18.585Z,6.20
2022-11-21T23:28:46.323Z,5.77
2022-11-21T23:31:14.252Z,5.80
2022-11-21T23:33:42.055Z,6.20
2022-11-21T23:36:09.397Z,5.93
2022-11-21T23:38:36.735Z,6.93
2022-11-21T23:41:04.172Z,5.00
2022-11-21T23:43:31.537Z,6.23
2022-11-21T23:45:58.957Z,5.23
2022-11-21T23:48:26.331Z,6.47
2022-11-21T23:50:54.036Z,5.93
2022-11-21T23:53:23.144Z,6.13
2022-11-21T23:55:50.532Z,4.37
2022-11-21T23:58:17.955Z,4.23
